createdAt,value
2018-01-04T00:01:26.076Z,20.40
2018-01-04T00:03:52.329Z,17.07
2018-01-04T00:06:18.468Z,23.63
2018-01-04T00:08:44.640Z,18.07
2018-01-04T00:11:10.855Z,20.43
2018-01-04T00:13:37.768Z,23.10
2018-01-04T00:16:03.941Z,26.10
2018-01-04T00:18:31.700Z,15.90
2018-01-04T00:20:57.883Z,17.77
2018-01-04T00:23:24.068Z,13.47
2018-01-04T00:25:51.023Z,24.03
2018-01-04T00:28:17.947Z,25.27
2018-01-04T00:30:44.944Z,21.87
2018-01-04T00:33:11.159Z,31.63
2018-01-04T00:35:38.073Z,33.27
2018-01-04T00:38:04.252Z,18.10
2018-01-04T00:40:30.469Z,13.40
2018-01-04T00:42:57.405Z,19.07
2018-01-04T00:45:23.592Z,18.87
2018-01-04T00:47:49.794Z,15.00
2018-01-04T00:50:16.740Z,16.27
2018-01-04T00:52:43.658Z,21.47
2018-01-04T00:55:09.869Z,28.07
2018-01-04T00:57:36.111Z,19.57
2018-01-04T01:00:02.321Z,24.33
2018-01-04T01:02:28.532Z,25.30
2018-01-04T01:04:55.455Z,30.77
2018-01-04T01:07:21.620Z,21.07
2018-01-04T01:09:49.450Z,18.00
2018-01-04T01:12:15.640Z,13.87
2018-01-04T01:14:41.838Z,14.13
2018-01-04T01:17:08.797Z,20.93
2018-01-04T01:19:35.728Z,25.67
2018-01-04T01:22:01.908Z,26.07
2018-01-04T01:24:28.092Z,18.60
2018-01-04T01:26:54.275Z,29.17
2018-01-04T01:29:21.213Z,31.50
2018-01-04T01:31:48.419Z,35.47
2018-01-04T01:34:14.629Z,18.90
2018-01-04T01:36:40.803Z,18.70
2018-01-04T01:39:07.020Z,19.17
2018-01-04T01:41:33.240Z,20.53
2018-01-04T01:43:59.431Z,19.37
2018-01-04T01:46:27.179Z,20.83
2018-01-04T01:49:05.865Z,22.47
2018-01-04T01:51:32.077Z,21.73
2018-01-04T01:53:58.253Z,11.80
2018-01-04T01:56:24.464Z,19.80
2018-01-04T01:58:51.636Z,20.77
2018-01-04T02:01:17.828Z,22.77
2018-01-04T02:03:44.740Z,10.77
2018-01-04T02:06:11.712Z,16.60
2018-01-04T02:08:38.632Z,20.10
2018-01-04T02:11:04.840Z,14.50
2018-01-04T02:13:31.066Z,16.10
2018-01-04T02:15:57.262Z,9.70
2018-01-04T02:21:37.008Z,11.70
2018-01-04T02:27:14.032Z,16.07
2018-01-04T02:29:52.527Z,8.83
2018-01-04T02:32:31.091Z,21.13
2018-01-04T02:35:09.542Z,16.90
2018-01-04T02:37:48.716Z,20.43
2018-01-04T02:40:27.336Z,19.90
2018-01-04T02:43:05.816Z,27.87
2018-01-04T02:45:54.915Z,19.30
2018-01-04T02:48:21.088Z,19.17
2018-01-04T02:50:48.011Z,25.17
2018-01-04T02:53:14.229Z,8.60
2018-01-04T02:55:40.420Z,10.83
2018-01-04T02:58:06.615Z,6.00
2018-01-04T03:00:33.773Z,5.83
2018-01-04T03:03:00.713Z,6.20
2018-01-04T03:05:26.888Z,6.20
2018-01-04T03:07:53.112Z,6.33
2018-01-04T03:10:20.020Z,6.63
2018-01-04T03:12:46.202Z,4.43
2018-01-04T03:15:13.128Z,3.30
2018-01-04T03:17:39.301Z,4.57
2018-01-04T03:20:05.476Z,4.70
2018-01-04T03:22:37.683Z,5.20
2018-01-04T03:28:14.824Z,12.70
2018-01-04T03:30:47.221Z,4.83
2018-01-04T03:33:19.695Z,10.10
2018-01-04T03:35:52.008Z,7.53
2018-01-04T03:38:24.332Z,10.40
2018-01-04T03:40:56.695Z,14.47
2018-01-04T03:43:29.064Z,11.30
2018-01-04T03:46:01.353Z,13.00
2018-01-04T03:48:27.549Z,11.30
2018-01-04T03:50:59.741Z,10.43
2018-01-04T03:53:32.048Z,12.20
2018-01-04T03:56:04.456Z,12.33
2018-01-04T03:58:36.875Z,17.57
2018-01-04T04:01:11.124Z,18.87
2018-01-04T04:03:38.058Z,11.60
2018-01-04T04:06:10.342Z,16.50
2018-01-04T04:08:43.402Z,11.27
2018-01-04T04:11:09.608Z,13.50
2018-01-04T04:13:35.799Z,9.53
2018-01-04T04:16:02.012Z,10.80
2018-01-04T04:18:28.253Z,15.47
2018-01-04T04:20:54.413Z,15.33
2018-01-04T04:23:21.341Z,13.20
2018-01-04T04:25:47.523Z,13.30
2018-01-04T04:28:13.695Z,23.43
2018-01-04T04:30:39.920Z,9.63
2018-01-04T04:33:06.144Z,25.10
2018-01-04T04:35:32.352Z,9.23
2018-01-04T04:37:58.566Z,12.50
2018-01-04T04:40:24.739Z,6.43
2018-01-04T04:42:50.910Z,12.40
2018-01-04T04:45:17.115Z,12.57
2018-01-04T04:47:43.292Z,14.10
2018-01-04T04:50:09.494Z,9.87
2018-01-04T04:52:35.726Z,16.10
2018-01-04T04:55:01.907Z,7.90
2018-01-04T04:57:28.840Z,14.90
2018-01-04T04:59:55.988Z,12.00
2018-01-04T05:02:22.268Z,13.73
2018-01-04T05:04:48.464Z,8.93
2018-01-04T05:07:14.653Z,11.80
2018-01-04T05:09:40.833Z,9.73
2018-01-04T05:12:07.020Z,15.10
2018-01-04T05:14:33.234Z,20.13
2018-01-04T05:16:59.445Z,10.83
2018-01-04T05:19:25.672Z,13.37
2018-01-04T05:21:51.881Z,7.10
2018-01-04T05:24:18.092Z,14.30
2018-01-04T05:26:44.287Z,11.87
2018-01-04T05:29:11.216Z,11.87
2018-01-04T05:31:37.372Z,13.93
2018-01-04T05:34:04.298Z,15.07
2018-01-04T05:36:30.544Z,7.73
2018-01-04T05:38:56.728Z,13.43
2018-01-04T05:41:22.911Z,10.67
2018-01-04T05:43:50.666Z,14.23
2018-01-04T05:46:16.837Z,9.00
2018-01-04T05:48:43.764Z,12.83
2018-01-04T05:51:09.943Z,13.00
2018-01-04T05:53:36.124Z,11.70
2018-01-04T05:56:02.297Z,4.00
2018-01-04T05:58:28.493Z,6.30
2018-01-04T06:00:54.674Z,12.80
2018-01-04T06:03:21.000Z,11.83
2018-01-04T06:05:47.204Z,7.40
2018-01-04T06:08:14.124Z,10.00
2018-01-04T06:10:40.284Z,11.03
2018-01-04T06:13:06.492Z,8.73
2018-01-04T06:15:32.672Z,10.10
2018-01-04T06:17:59.576Z,6.90
2018-01-04T06:20:25.768Z,8.20
2018-01-04T06:22:51.964Z,11.37
2018-01-04T06:25:18.896Z,18.63
2018-01-04T06:27:45.088Z,4.20
2018-01-04T06:30:11.284Z,5.27
2018-01-04T06:32:38.224Z,3.67
2018-01-04T06:35:05.175Z,8.43
2018-01-04T06:37:31.378Z,19.03
2018-01-04T06:39:57.551Z,10.20
2018-01-04T06:42:23.729Z,7.70
2018-01-04T06:44:49.888Z,10.73
2018-01-04T06:47:16.083Z,8.17
2018-01-04T06:49:43.023Z,16.17
2018-01-04T06:52:09.927Z,22.67
2018-01-04T06:54:36.122Z,6.60
2018-01-04T06:57:02.312Z,12.27
2018-01-04T06:59:28.480Z,18.03
2018-01-04T07:01:55.664Z,14.00
2018-01-04T07:04:21.996Z,10.63
2018-01-04T07:06:48.192Z,4.90
2018-01-04T07:09:15.108Z,15.10
2018-01-04T07:11:41.316Z,14.10
2018-01-04T07:14:07.513Z,15.37
2018-01-04T07:16:34.432Z,9.07
2018-01-04T07:19:00.648Z,12.73
2018-01-04T07:21:26.852Z,8.80
2018-01-04T07:23:53.769Z,13.10
2018-01-04T07:26:20.724Z,7.13
2018-01-04T07:28:47.652Z,15.03
2018-01-04T07:31:13.828Z,13.30
2018-01-04T07:33:40.817Z,9.37
2018-01-04T07:36:07.008Z,13.30
2018-01-04T07:38:33.925Z,12.33
2018-01-04T07:41:00.123Z,11.10
2018-01-04T07:43:26.320Z,16.20
2018-01-04T07:45:53.251Z,19.13
2018-01-04T07:48:19.444Z,12.30
2018-01-04T07:50:45.615Z,15.70
2018-01-04T07:53:11.804Z,17.03
2018-01-04T07:55:38.725Z,12.27
2018-01-04T07:58:05.644Z,12.40
2018-01-04T08:00:31.824Z,18.00
2018-01-04T08:02:58.024Z,13.77
2018-01-04T08:05:24.332Z,14.50
2018-01-04T08:07:50.524Z,19.20
2018-01-04T08:10:16.748Z,16.97
2018-01-04T08:12:42.960Z,21.00
2018-01-04T08:15:09.124Z,16.83
2018-01-04T08:17:35.317Z,14.50
2018-01-04T08:20:01.494Z,12.53
2018-01-04T08:22:27.688Z,17.97
2018-01-04T08:24:53.879Z,16.07
2018-01-04T08:27:20.060Z,13.00
2018-01-04T08:29:46.223Z,14.37
2018-01-04T08:32:13.165Z,16.73
2018-01-04T08:34:40.120Z,13.30
2018-01-04T08:37:07.048Z,14.27
2018-01-04T08:39:33.288Z,8.97
2018-01-04T08:42:00.202Z,10.03
2018-01-04T08:44:26.420Z,8.67
2018-01-04T08:46:53.057Z,12.57
2018-01-04T08:49:19.239Z,12.80
2018-01-04T08:51:45.453Z,10.20
2018-01-04T08:54:11.612Z,5.10
2018-01-04T08:56:37.820Z,4.83
2018-01-04T08:59:03.979Z,6.77
2018-01-04T09:01:30.160Z,4.93
2018-01-04T09:03:56.344Z,6.47
2018-01-04T09:06:22.597Z,4.27
2018-01-04T09:08:48.830Z,8.63
2018-01-04T09:11:15.744Z,3.73
2018-01-04T09:13:41.914Z,8.50
2018-01-04T09:16:08.844Z,4.37
2018-01-04T09:18:35.024Z,6.60
2018-01-04T09:21:01.204Z,8.57
2018-01-04T09:23:27.404Z,14.00
2018-01-04T09:25:53.580Z,5.30
2018-01-04T09:28:19.779Z,10.10
2018-01-04T09:30:46.015Z,5.63
2018-01-04T09:33:12.185Z,2.53
2018-01-04T09:35:38.407Z,9.53
2018-01-04T09:38:04.584Z,11.17
2018-01-04T09:40:30.776Z,8.20
2018-01-04T09:42:56.944Z,11.00
2018-01-04T09:45:23.877Z,3.00
2018-01-04T09:47:50.069Z,5.77
2018-01-04T09:50:16.280Z,12.80
2018-01-04T09:52:42.476Z,3.77
2018-01-04T09:55:08.644Z,6.93
2018-01-04T09:57:34.864Z,4.73
2018-01-04T10:00:01.811Z,20.70
2018-01-04T10:02:28.784Z,8.10
2018-01-04T10:04:55.016Z,4.63
2018-01-04T10:07:21.286Z,18.23
2018-01-04T10:09:47.484Z,20.83
2018-01-04T10:12:13.668Z,15.23
2018-01-04T10:14:40.628Z,11.10
2018-01-04T10:17:06.903Z,24.30
2018-01-04T10:19:33.148Z,26.30
2018-01-04T10:21:59.335Z,35.13
2018-01-04T10:24:25.538Z,31.90
2018-01-04T10:26:51.728Z,26.17
2018-01-04T10:29:18.721Z,30.23
2018-01-04T10:31:44.912Z,40.83
2018-01-04T10:34:11.836Z,36.47
2018-01-04T10:36:37.997Z,30.50
2018-01-04T10:39:04.920Z,55.53
2018-01-04T10:41:31.107Z,37.20
2018-01-04T10:43:57.312Z,40.10
2018-01-04T10:46:23.500Z,38.63
2018-01-04T10:48:49.681Z,28.80
2018-01-04T10:51:16.603Z,28.13
2018-01-04T10:53:42.792Z,38.90
2018-01-04T10:56:08.960Z,24.17
2018-01-04T10:58:35.200Z,43.27
2018-01-04T11:01:01.374Z,36.70
2018-01-04T11:03:28.354Z,24.53
2018-01-04T11:05:55.240Z,31.10
2018-01-04T11:08:21.501Z,37.40
2018-01-04T11:10:47.697Z,28.43
2018-01-04T11:13:13.917Z,31.97
2018-01-04T11:15:40.131Z,29.87
2018-01-04T11:18:06.297Z,31.00
2018-01-04T11:20:32.536Z,24.57
2018-01-04T11:22:58.714Z,44.37
2018-01-04T11:25:24.904Z,29.27
2018-01-04T11:27:52.597Z,45.53
2018-01-04T11:30:19.520Z,38.40
2018-01-04T11:32:45.712Z,28.33
2018-01-04T11:35:11.901Z,36.40
2018-01-04T11:37:38.112Z,30.20
2018-01-04T11:40:04.332Z,40.30
2018-01-04T11:42:30.596Z,26.53
2018-01-04T11:44:56.788Z,28.03
2018-01-04T11:47:22.960Z,43.90
2018-01-04T11:49:49.157Z,37.10
2018-01-04T11:52:15.572Z,43.43
2018-01-04T11:54:41.775Z,50.80
2018-01-04T11:57:08.743Z,38.13
2018-01-04T11:59:35.656Z,46.33
2018-01-04T12:02:01.822Z,38.00
2018-01-04T12:04:27.995Z,32.30
2018-01-04T12:06:54.177Z,37.77
2018-01-04T12:09:21.199Z,42.57
2018-01-04T12:11:47.416Z,35.03
2018-01-04T12:14:13.640Z,46.13
2018-01-04T12:16:39.824Z,46.07
2018-01-04T12:19:06.812Z,38.80
2018-01-04T12:21:33.732Z,53.70
2018-01-04T12:24:00.680Z,49.20
2018-01-04T12:26:26.891Z,40.07
2018-01-04T12:28:53.093Z,37.97
2018-01-04T12:31:19.332Z,64.90
2018-01-04T12:33:45.542Z,48.83
2018-01-04T12:36:12.472Z,39.03
2018-01-04T12:38:39.408Z,39.17
2018-01-04T12:41:05.625Z,43.83
2018-01-04T12:43:31.813Z,49.10
2018-01-04T12:45:58.028Z,39.97
2018-01-04T12:48:24.220Z,34.53
2018-01-04T12:50:50.398Z,41.80
2018-01-04T12:53:16.598Z,39.40
2018-01-04T12:55:42.796Z,49.60
2018-01-04T12:58:09.021Z,52.57
2018-01-04T13:00:35.212Z,55.17
2018-01-04T13:03:01.385Z,47.50
2018-01-04T13:05:27.624Z,42.80
2018-01-04T13:07:54.536Z,39.90
2018-01-04T13:10:20.789Z,39.63
2018-01-04T13:12:47.752Z,43.70
2018-01-04T13:15:14.672Z,49.83
2018-01-04T13:17:41.620Z,41.17
2018-01-04T13:20:07.828Z,41.73
2018-01-04T13:22:34.033Z,41.73
2018-01-04T13:25:00.240Z,28.50
2018-01-04T13:27:26.428Z,41.07
2018-01-04T13:29:52.632Z,38.07
2018-01-04T13:32:18.840Z,42.17
2018-01-04T13:34:45.009Z,35.33
2018-01-04T13:37:11.191Z,49.50
2018-01-04T13:39:37.404Z,40.87
2018-01-04T13:42:03.609Z,32.63
2018-01-04T13:44:29.803Z,42.30
2018-01-04T13:46:56.775Z,47.20
2018-01-04T13:49:23.728Z,37.30
2018-01-04T13:51:50.648Z,32.57
2018-01-04T13:54:16.876Z,33.73
2018-01-04T13:56:43.085Z,48.80
2018-01-04T13:59:09.256Z,38.13
2018-01-04T14:01:37.786Z,35.80
2018-01-04T14:04:06.583Z,46.17
2018-01-04T14:06:33.200Z,46.93
2018-01-04T14:09:00.127Z,37.57
2018-01-04T14:11:26.518Z,47.10
2018-01-04T14:13:52.751Z,41.27
2018-01-04T14:16:18.970Z,40.33
2018-01-04T14:18:45.144Z,61.77
2018-01-04T14:21:11.304Z,38.33
2018-01-04T14:23:38.302Z,56.23
2018-01-04T14:26:05.198Z,52.60
2018-01-04T14:28:32.856Z,53.93
2018-01-04T14:30:59.904Z,47.17
2018-01-04T14:33:26.129Z,54.80
2018-01-04T14:35:52.296Z,36.90
2018-01-04T14:38:20.139Z,45.33
2018-01-04T14:40:46.352Z,50.77
2018-01-04T14:43:12.548Z,55.27
2018-01-04T14:45:39.495Z,56.43
2018-01-04T14:48:06.424Z,40.97
2018-01-04T14:50:33.393Z,59.83
2018-01-04T14:53:00.348Z,46.83
2018-01-04T14:55:26.531Z,65.90
2018-01-04T14:57:52.842Z,48.13
2018-01-04T15:00:19.084Z,61.33
2018-01-04T15:02:45.264Z,59.30
2018-01-04T15:05:11.529Z,50.50
2018-01-04T15:07:38.476Z,57.40
2018-01-04T15:10:05.397Z,50.67
2018-01-04T15:12:31.640Z,54.03
2018-01-04T15:14:58.599Z,46.27
2018-01-04T15:17:25.540Z,53.90
2018-01-04T15:19:51.703Z,72.97
2018-01-04T15:22:17.927Z,53.93
2018-01-04T15:24:45.553Z,69.10
2018-01-04T15:27:13.499Z,50.13
2018-01-04T15:29:41.404Z,58.43
2018-01-04T15:32:10.577Z,53.43
2018-01-04T15:34:39.980Z,64.40
2018-01-04T15:37:09.354Z,71.20
2018-01-04T15:39:37.090Z,48.83
2018-01-04T15:42:03.870Z,65.30
2018-01-04T15:44:30.872Z,52.00
2018-01-04T15:46:57.061Z,47.83
2018-01-04T15:49:23.988Z,65.43
2018-01-04T15:51:50.230Z,55.47
2018-01-04T15:54:16.433Z,62.70
2018-01-04T15:56:43.637Z,61.00
2018-01-04T15:59:12.703Z,47.43
2018-01-04T16:01:41.117Z,48.60
2018-01-04T16:04:09.639Z,54.17
2018-01-04T16:06:38.617Z,67.70
2018-01-04T16:09:07.188Z,68.50
2018-01-04T16:11:37.123Z,65.77
2018-01-04T16:14:06.666Z,46.47
2018-01-04T16:16:36.122Z,53.87
2018-01-04T16:19:05.431Z,53.80
2018-01-04T16:21:34.121Z,49.33
2018-01-04T16:24:02.299Z,59.03
2018-01-04T16:26:30.303Z,59.70
2018-01-04T16:28:58.660Z,74.70
2018-01-04T16:31:28.167Z,64.70
2018-01-04T16:33:57.273Z,79.20
2018-01-04T16:36:25.529Z,58.20
2018-01-04T16:38:53.113Z,69.17
2018-01-04T16:41:22.622Z,58.50
2018-01-04T16:43:52.680Z,65.07
2018-01-04T16:46:21.472Z,56.10
2018-01-04T16:48:50.234Z,89.73
2018-01-04T16:51:18.832Z,64.10
2018-01-04T16:53:47.531Z,71.47
2018-01-04T16:56:16.099Z,75.30
2018-01-04T16:58:45.694Z,70.37
2018-01-04T17:01:14.451Z,75.20
2018-01-04T17:03:43.019Z,51.77
2018-01-04T17:06:12.528Z,63.17
2018-01-04T17:08:40.803Z,60.87
2018-01-04T17:11:09.294Z,70.53
2018-01-04T17:13:39.214Z,58.10
2018-01-04T17:16:07.841Z,64.03
2018-01-04T17:18:35.764Z,65.63
2018-01-04T17:21:04.232Z,67.17
2018-01-04T17:23:33.808Z,92.53
2018-01-04T17:26:00.561Z,72.70
2018-01-04T17:28:26.780Z,65.47
2018-01-04T17:30:52.992Z,69.23
2018-01-04T17:33:19.159Z,64.13
2018-01-04T17:35:45.393Z,66.87
2018-01-04T17:38:11.572Z,83.50
2018-01-04T17:40:37.762Z,64.23
2018-01-04T17:43:04.028Z,72.63
2018-01-04T17:45:30.968Z,73.27
2018-01-04T17:47:57.131Z,82.87
2018-01-04T17:50:24.099Z,68.47
2018-01-04T17:52:51.044Z,77.57
2018-01-04T17:55:17.243Z,83.03
2018-01-04T17:57:43.572Z,69.60
2018-01-04T18:00:09.773Z,71.90
2018-01-04T18:02:35.981Z,79.20
2018-01-04T18:05:02.456Z,60.23
2018-01-04T18:07:28.644Z,68.90
2018-01-04T18:09:54.829Z,61.80
2018-01-04T18:12:22.601Z,62.90
2018-01-04T18:14:49.544Z,53.50
2018-01-04T18:17:15.809Z,72.40
2018-01-04T18:19:42.785Z,69.27
2018-01-04T18:22:08.956Z,72.00
2018-01-04T18:24:35.146Z,70.57
2018-01-04T18:27:01.344Z,60.23
2018-01-04T18:29:27.550Z,72.23
2018-01-04T18:31:53.801Z,62.77
2018-01-04T18:34:20.018Z,63.13
2018-01-04T18:36:46.249Z,62.37
2018-01-04T18:39:12.453Z,65.87
2018-01-04T18:41:38.723Z,50.60
2018-01-04T18:44:04.893Z,58.57
2018-01-04T18:46:31.095Z,52.57
2018-01-04T18:48:57.294Z,57.10
2018-01-04T18:51:23.506Z,57.77
2018-01-04T18:53:50.432Z,57.90
2018-01-04T18:56:16.692Z,49.63
2018-01-04T18:58:43.604Z,77.40
2018-01-04T19:01:09.780Z,60.80
2018-01-04T19:03:36.744Z,51.63
2018-01-04T19:06:02.944Z,54.50
2018-01-04T19:08:29.117Z,60.97
2018-01-04T19:10:55.320Z,52.47
2018-01-04T19:13:21.497Z,48.77
2018-01-04T19:15:47.723Z,61.77
2018-01-04T19:18:14.192Z,64.43
2018-01-04T19:20:40.392Z,49.43
2018-01-04T19:23:06.582Z,51.60
2018-01-04T19:25:32.764Z,45.20
2018-01-04T19:27:58.938Z,36.80
2018-01-04T19:30:25.112Z,40.93
2018-01-04T19:32:51.346Z,45.90
2018-01-04T19:35:18.297Z,50.57
2018-01-04T19:37:44.488Z,44.37
2018-01-04T19:40:10.721Z,50.70
2018-01-04T19:42:36.905Z,48.90
2018-01-04T19:45:03.145Z,58.03
2018-01-04T19:47:29.345Z,40.40
2018-01-04T19:49:55.528Z,53.70
2018-01-04T19:52:21.764Z,34.47
2018-01-04T19:54:48.775Z,51.37
2018-01-04T19:57:14.965Z,51.87
2018-01-04T19:59:41.156Z,39.50
2018-01-04T20:02:08.100Z,57.53
2018-01-04T20:04:35.012Z,46.43
2018-01-04T20:07:01.207Z,49.20
2018-01-04T20:09:27.434Z,39.53
2018-01-04T20:11:53.640Z,52.43
2018-01-04T20:14:19.841Z,37.13
2018-01-04T20:16:46.184Z,40.03
2018-01-04T20:19:12.439Z,41.50
2018-01-04T20:21:39.420Z,39.90
2018-01-04T20:24:06.376Z,42.77
2018-01-04T20:26:32.568Z,35.63
2018-01-04T20:28:58.776Z,31.33
2018-01-04T20:31:24.997Z,44.67
2018-01-04T20:33:51.173Z,37.07
2018-01-04T20:36:17.376Z,34.37
2018-01-04T20:38:43.571Z,36.53
2018-01-04T20:41:10.512Z,33.73
2018-01-04T20:43:37.458Z,28.30
2018-01-04T20:46:04.394Z,47.43
2018-01-04T20:48:30.584Z,31.50
2018-01-04T20:50:56.809Z,38.30
2018-01-04T20:53:23.040Z,30.77
2018-01-04T20:55:49.219Z,39.93
2018-01-04T20:58:15.396Z,38.80
2018-01-04T21:00:42.324Z,26.00
2018-01-04T21:03:09.259Z,31.70
2018-01-04T21:05:35.476Z,28.37
2018-01-04T21:08:01.712Z,30.40
2018-01-04T21:10:27.916Z,29.70
2018-01-04T21:12:54.093Z,36.67
2018-01-04T21:15:20.304Z,34.23
2018-01-04T21:17:46.483Z,34.10
2018-01-04T21:20:12.720Z,38.03
2018-01-04T21:22:39.694Z,34.57
2018-01-04T21:25:06.605Z,34.90
2018-01-04T21:27:32.780Z,31.20
2018-01-04T21:29:58.992Z,31.93
2018-01-04T21:32:25.904Z,33.10
2018-01-04T21:34:52.076Z,30.43
2018-01-04T21:37:19.028Z,34.73
2018-01-04T21:39:45.975Z,34.00
2018-01-04T21:42:12.187Z,36.63
2018-01-04T21:44:38.417Z,28.87
2018-01-04T21:47:04.602Z,27.03
2018-01-04T21:49:30.812Z,29.30
2018-01-04T21:51:57.048Z,33.83
2018-01-04T21:54:24.000Z,29.70
2018-01-04T21:56:50.928Z,28.23
2018-01-04T21:59:17.145Z,30.67
2018-01-04T22:01:43.352Z,30.93
2018-01-04T22:04:09.548Z,28.60
2018-01-04T22:06:35.778Z,29.57
2018-01-04T22:09:02.731Z,20.30
2018-01-04T22:11:29.685Z,29.47
2018-01-04T22:13:56.612Z,25.53
2018-01-04T22:16:22.821Z,20.03
2018-01-04T22:18:49.004Z,22.63
2018-01-04T22:21:17.034Z,19.63
2018-01-04T22:23:45.266Z,18.47
2018-01-04T22:26:13.655Z,34.97
2018-01-04T22:28:43.619Z,31.67
2018-01-04T22:31:11.100Z,24.27
2018-01-04T22:33:38.055Z,33.40
2018-01-04T22:36:05.036Z,21.17
2018-01-04T22:38:31.218Z,29.70
2018-01-04T22:40:57.411Z,30.20
2018-01-04T22:43:24.330Z,27.73
2018-01-04T22:45:50.517Z,35.37
2018-01-04T22:48:16.724Z,31.03
2018-01-04T22:50:43.647Z,29.23
2018-01-04T22:53:09.835Z,24.43
2018-01-04T22:55:36.009Z,32.53
2018-01-04T22:58:02.232Z,36.90
2018-01-04T23:00:28.391Z,40.47
2018-01-04T23:02:54.550Z,36.53
2018-01-04T23:05:21.469Z,38.27
2018-01-04T23:07:48.428Z,38.10
2018-01-04T23:10:15.352Z,29.80
2018-01-04T23:12:41.569Z,42.90
2018-01-04T23:15:07.796Z,40.17
2018-01-04T23:17:33.996Z,45.03
2018-01-04T23:20:00.917Z,45.63
2018-01-04T23:22:28.682Z,33.70
2018-01-04T23:24:54.884Z,42.87
2018-01-04T23:27:21.963Z,37.80
2018-01-04T23:29:48.184Z,51.70
2018-01-04T23:32:14.355Z,38.67
2018-01-04T23:34:40.570Z,40.00
2018-01-04T23:37:06.781Z,29.60
2018-01-04T23:39:32.953Z,28.97
2018-01-04T23:41:59.940Z,39.87
2018-01-04T23:44:26.881Z,27.67
2018-01-04T23:46:53.084Z,43.67
2018-01-04T23:49:19.264Z,27.37
2018-01-04T23:51:45.443Z,42.97
2018-01-04T23:54:11.633Z,28.50
2018-01-04T23:56:38.682Z,21.60
2018-01-04T23:59:04.929Z,29.10
